Latest Coastal Weather Observations for Adele Island

IDW60701

Issued at 6:31 pm WST Monday 2 May 2016 (issued every 10 minutes, with the page automatically refreshed every 10 minutes)

About coastal observations | Map of coastal stations | Coastal observations for WA | Marine services | Other Formats
Station Details ID: 200735 Name: ADELE ISLAND Lat: -15.51 Lon: 123.16 Height: 4.6 m
Data from the previous 72 hours. | See also: Recent months at Adele Island
Date/Time
WST
Temp

°C
Wind Pressure Rain
since 9am
mm
Weather Cloud Vis
km
Sea
Height
m
Swell
Dir
 
Speed
knots
Gust
knots
hPa Trend Height
m
Period
s
Dir
02/06:30pm - WSW 9 10 1011.0 - - - - - - - - -
02/06:00pm - WSW 9 11 1010.7 - - - - - - - - -
02/05:30pm - SW 7 9 1010.5 - - - - - - - - -
02/05:00pm - SW 7 9 1010.2 - - - - - - - - -
02/04:30pm - SW 9 11 1009.9 - - - - - - - - -
02/04:00pm - SW 9 11 1009.7 - - - - - - - - -
02/03:30pm - SW 10 11 1009.7 - - - - - - - - -
02/03:00pm - SW 9 11 1009.6 - - - - - - - - -
02/02:30pm - SW 9 11 1009.6 - - - - - - - - -
02/02:00pm - SW 9 11 1009.7 - - - - - - - - -
02/01:30pm - SSW 9 12 1010.0 - - - - - - - - -
02/01:00pm - WSW 8 11 1010.3 - - - - - - - - -
02/12:30pm - SW 8 11 1010.7 - - - - - - - - -
02/12:00pm - SSW 7 10 1011.3 - - - - - - - - -
02/11:30am - S 6 8 1011.7 - - - - - - - - -
02/11:00am - SE 7 10 1011.9 - - - - - - - - -
02/10:30am - SE 8 12 1012.3 - - - - - - - - -
02/10:00am - ESE 8 12 1012.7 - - - - - - - - -
02/09:30am - SSE 10 14 1012.8 - - - - - - - - -
02/09:00am - S 11 13 1012.7 - - - - - - - - -
02/08:30am - SSW 13 16 1012.6 - - - - - - - - -
02/08:00am - S 13 16 1012.4 - - - - - - - - -
02/07:30am - SSE 11 14 1012.3 - - - - - - - - -
02/07:00am - S 9 13 1011.9 - - - - - - - - -
02/06:30am - S 8 9 1011.6 - - - - - - - - -
02/06:00am - S 10 12 1011.0 - - - - - - - - -
02/05:30am - S 9 10 1010.8 - - - - - - - - -
02/05:00am - SSW 8 9 1010.6 - - - - - - - - -
02/04:30am - SSW 8 10 1010.3 - - - - - - - - -
02/04:00am - SW 9 10 1010.1 - - - - - - - - -
02/03:30am - SW 9 11 1010.1 - - - - - - - - -
02/03:00am - SW 9 11 1010.0 - - - - - - - - -
02/02:30am - SW 9 11 1010.0 - - - - - - - - -
02/02:00am - SW 9 11 1010.0 - - - - - - - - -
02/01:30am - WSW 9 10 1010.3 - - - - - - - - -
02/01:00am - W 9 11 1010.4 - - - - - - - - -
02/12:30am - W 8 9 1010.7 - - - - - - - - -
02/12:00am - WSW 9 10 1010.8 - - - - - - - - -
 
Date/Time
WST
Temp

°C
Wind Pressure Rain
since 9am
mm
Weather Cloud Vis
km
Sea
Height
m
Swell
Dir
 
Speed
knots
Gust
knots
hPa Trend Height
m
Period
s
Dir
01/11:30pm - W 9 11 1011.1 - - - - - - - - -
01/11:00pm - W 9 11 1011.3 - - - - - - - - -
01/10:30pm - W 9 11 1011.4 - - - - - - - - -
01/10:00pm - W 9 11 1011.6 - - - - - - - - -
01/09:30pm - WSW 7 9 1011.7 - - - - - - - - -
01/09:00pm - WSW 8 10 1011.7 - - - - - - - - -
01/08:30pm - WSW 9 11 1011.7 - - - - - - - - -
01/08:00pm - W 8 9 1011.9 - - - - - - - - -
01/07:30pm - WSW 8 9 1011.7 - - - - - - - - -
01/07:00pm - SW 5 7 1011.4 - - - - - - - - -
01/06:30pm - SW 7 9 1011.1 - - - - - - - - -
01/06:00pm - SW 10 13 1010.8 - - - - - - - - -
01/05:30pm - SW 11 13 1010.6 - - - - - - - - -
01/05:00pm - SW 9 11 1010.4 - - - - - - - - -
01/04:30pm - SW 9 11 1010.3 - - - - - - - - -
01/04:00pm - SW 9 11 1010.0 - - - - - - - - -
01/03:30pm - SSW 9 10 1009.8 - - - - - - - - -
01/03:00pm - SW 8 11 1009.7 - - - - - - - - -
01/02:30pm - SW 9 11 1009.7 - - - - - - - - -
01/02:00pm - SW 11 13 1009.9 - - - - - - - - -
01/01:30pm - SW 9 12 1010.2 - - - - - - - - -
01/01:00pm - S 11 15 1010.2 - - - - - - - - -
01/12:30pm - SSW 10 14 1010.7 - - - - - - - - -
01/12:00pm - SSW 10 13 1011.4 - - - - - - - - -
01/11:30am - S 10 15 1011.9 - - - - - - - - -
01/11:00am - SSW 12 16 1012.3 - - - - - - - - -
01/10:30am - S 13 16 1012.5 - - - - - - - - -
01/10:00am - SSW 11 14 1012.8 - - - - - - - - -
01/09:30am - SW 11 13 1013.1 - - - - - - - - -
01/09:00am - SSW 10 12 1013.4 - - - - - - - - -
01/08:30am - SSW 9 11 1013.3 - - - - - - - - -
01/08:00am - SSW 9 11 1013.3 - - - - - - - - -
01/07:30am - SSW 8 10 1013.2 - - - - - - - - -
01/07:00am - SW 8 11 1013.0 - - - - - - - - -
01/06:30am - SSW 7 10 1013.0 - - - - - - - - -
01/06:00am - SW 8 9 1012.8 - - - - - - - - -
01/05:30am - SW 5 7 1012.5 - - - - - - - - -
01/05:00am - SW 6 7 1012.0 - - - - - - - - -
01/04:30am - SW 6 7 1011.6 - - - - - - - - -
01/04:00am - SW 7 8 1011.1 - - - - - - - - -
01/03:30am - SW 7 8 1010.9 - - - - - - - - -
01/03:00am - SW 7 8 1010.8 - - - - - - - - -
01/02:30am - SW 6 8 1010.9 - - - - - - - - -
01/02:00am - SW 8 9 1010.7 - - - - - - - - -
01/01:30am - SW 7 9 1010.8 - - - - - - - - -
01/01:00am - SW 7 8 1011.1 - - - - - - - - -
01/12:30am - WSW 6 7 1011.2 - - - - - - - - -
01/12:00am - WSW 7 8 1011.3 - - - - - - - - -
 
Date/Time
WST
Temp

°C
Wind Pressure Rain
since 9am
mm
Weather Cloud Vis
km
Sea
Height
m
Swell
Dir
 
Speed
knots
Gust
knots
hPa Trend Height
m
Period
s
Dir
30/11:30pm - WSW 7 7 1011.4 - - - - - - - - -
30/11:00pm - WSW 6 8 1011.7 - - - - - - - - -
30/10:30pm - WSW 7 8 1011.8 - - - - - - - - -
30/10:00pm - WSW 7 7 1011.9 - - - - - - - - -
30/09:30pm - SW 6 7 1011.9 - - - - - - - - -
30/09:00pm - SW 6 7 1012.0 - - - - - - - - -
30/08:30pm - SW 7 7 1012.0 - - - - - - - - -
30/08:00pm - SW 6 7 1012.0 - - - - - - - - -
30/07:30pm - WSW 5 7 1011.7 - - - - - - - - -
30/07:00pm - WSW 6 7 1011.6 - - - - - - - - -
30/06:30pm - SW 6 7 1011.3 - - - - - - - - -
30/06:00pm - SW 5 7 1011.0 - - - - - - - - -
30/05:30pm - SW 7 8 1010.9 - - - - - - - - -
30/05:00pm - SSW 7 9 1010.6 - - - - - - - - -
30/04:30pm - SW 7 9 1010.3 - - - - - - - - -
30/04:00pm - SSW 8 10 1010.2 - - - - - - - - -
30/03:30pm - SSW 8 11 1010.0 - - - - - - - - -
30/03:00pm - SW 8 10 1009.9 - - - - - - - - -
30/02:30pm - SSW 8 11 1010.0 - - - - - - - - -
30/02:00pm - SW 9 11 1010.1 - - - - - - - - -
30/01:30pm - SW 9 11 1010.5 - - - - - - - - -
30/01:00pm - SW 9 12 1010.9 - - - - - - - - -
30/12:30pm - SW 7 11 1011.2 - - - - - - - - -
30/12:00pm - SSE 6 11 1011.6 - - - - - - - - -
30/11:30am - SSE 8 11 1012.0 - - - - - - - - -
30/11:00am - SSE 8 13 1012.4 - - - - - - - - -
30/10:30am - SSE 8 11 1012.8 - - - - - - - - -
30/10:00am - SE 8 12 1013.1 - - - - - - - - -
30/09:30am - SE 7 11 1013.2 - - - - - - - - -
30/09:00am - SSE 7 10 1013.1 - - - - - - - - -
30/08:30am - SSE 6 8 1013.0 - - - - - - - - -
30/08:00am - SSE 5 9 1012.9 - - - - - - - - -
30/07:30am - SSE 7 9 1012.6 - - - - - - - - -
30/07:00am - ESE 5 7 1012.5 - - - - - - - - -
30/06:30am - ESE 6 7 1012.3 - - - - - - - - -
30/06:00am - S 7 8 1012.2 - - - - - - - - -
30/05:30am - S 7 8 1011.8 - - - - - - - - -
30/05:00am - SSE 7 8 1011.8 - - - - - - - - -
30/04:30am - SSW 7 8 1011.4 - - - - - - - - -
30/04:00am - S 8 9 1011.3 - - - - - - - - -
30/03:30am - S 8 10 1011.0 - - - - - - - - -
30/03:00am - SSW 8 10 1010.9 - - - - - - - - -
30/02:30am - SSW 9 10 1010.8 - - - - - - - - -
30/02:00am - SSW 9 11 1010.9 - - - - - - - - -
30/01:30am - SSW 8 9 1010.9 - - - - - - - - -
30/01:00am - SW 8 9 1011.1 - - - - - - - - -
30/12:30am - SW 7 9 1011.3 - - - - - - - - -
30/12:00am - WSW 7 8 1011.7 - - - - - - - - -
 
Date/Time
WST
Temp

°C
Wind Pressure Rain
since 9am
mm
Weather Cloud Vis
km
Sea
Height
m
Swell
Dir
 
Speed
knots
Gust
knots
hPa Trend Height
m
Period
s
Dir
29/11:30pm - WSW 8 9 1011.9 - - - - - - - - -
29/11:00pm - WSW 7 9 1012.2 - - - - - - - - -
29/10:30pm - WSW 8 9 1012.4 - - - - - - - - -
29/10:00pm - WSW 6 7 1012.7 - - - - - - - - -
29/09:30pm - WNW 6 8 1012.7 - - - - - - - - -
29/09:00pm - NW 5 6 1012.9 - - - - - - - - -
29/08:30pm - NW 5 6 1012.7 - - - - - - - - -
29/08:00pm - NNW 5 6 1012.5 - - - - - - - - -
29/07:30pm - N 3 5 1012.3 - - - - - - - - -
29/07:00pm - NNW 4 5 1012.0 - - - - - - - - -

Other Formats:

Comma delimited format used in spreadsheet applications
http://www.bom.gov.au/fwo/IDW60701/IDW60701.94210.axf

JavaScript Object Notation format (JSON) in row-major order
http://www.bom.gov.au/fwo/IDW60701/IDW60701.94210.json